Time;durP1;ratioP1;P1;durP2;ratioP2;P2;SDS_P1;SDS_P2;PMS_P1;PMS_P2;Temp;Humidity;BMP_temperature;BMP_pressure;BME280_temperature;BME280_humidity;BME280_pressure;Samples;Min_cycle;Max_cycle;Signal;HPM_P1;HPM_P2
2023/12/11 00:02:06;;;;;;;;;;;;;;;23.13;34.68;99724.59;5035045;28;19914;-43
2023/12/11 00:04:31;;;;;;;;;;;;;;;23.10;34.42;99709.59;5017535;28;19990;-46
2023/12/11 00:06:56;;;;;;;;;;;;;;;23.10;34.42;99720.44;5045390;28;19912;-46
2023/12/11 00:09:21;;;;;;;;;;;;;;;23.08;34.42;99710.88;5047431;28;19916;-45
2023/12/11 00:11:47;;;;;;;;;;;;;;;23.06;34.71;99713.81;5029723;28;19923;-44
2023/12/11 00:14:12;;;;;;;;;;;;;;;23.06;34.43;99712.97;5014084;28;19938;-45
2023/12/11 00:16:37;;;;;;;;;;;;;;;23.02;34.62;99717.19;5021854;28;19912;-46
2023/12/11 00:19:02;;;;;;;;;;;;;;;23.02;34.79;99717.19;5039633;28;19920;-47
2023/12/11 00:21:28;;;;;;;;;;;;;;;23.00;34.56;99711.19;5030575;28;19921;-46
2023/12/11 00:23:53;;;;;;;;;;;;;;;22.97;34.52;99720.59;5059591;28;20214;-43
2023/12/11 00:26:18;;;;;;;;;;;;;;;22.94;34.77;99713.75;5062000;28;19964;-44
2023/12/11 00:28:47;;;;;;;;;;;;;;;22.93;34.88;99713.94;5013518;28;19989;-49
2023/12/11 00:31:12;;;;;;;;;;;;;;;22.91;34.57;99716.06;5015372;28;19922;-45
2023/12/11 00:33:37;;;;;;;;;;;;;;;22.88;34.98;99708.34;5029937;28;19928;-45
2023/12/11 00:36:03;;;;;;;;;;;;;;;22.86;34.95;99715.88;5048323;28;19960;-46
2023/12/11 00:38:28;;;;;;;;;;;;;;;22.84;34.96;99715.25;5082385;28;19929;-44
2023/12/11 00:40:53;;;;;;;;;;;;;;;22.72;35.06;99693.47;5063401;28;20264;-46
2023/12/11 00:43:18;;;;;;;;;;;;;;;22.85;34.87;99717.78;5020837;28;19914;-46
2023/12/11 00:45:44;;;;;;;;;;;;;;;22.81;35.05;99703.00;5009320;28;19917;-43
2023/12/11 00:48:09;;;;;;;;;;;;;;;22.81;35.13;99711.13;5003411;28;19922;-46
2023/12/11 00:50:34;;;;;;;;;;;;;;;22.81;35.16;99713.00;5030826;28;19914;-48
2023/12/11 00:52:59;;;;;;;;;;;;;;;22.81;34.94;99715.69;5042557;28;20010;-46
2023/12/11 00:55:24;;;;;;;;;;;;;;;22.79;35.23;99715.94;5036410;28;19953;-46
2023/12/11 00:57:50;;;;;;;;;;;;;;;22.77;35.21;99722.63;5031238;28;19918;-45
2023/12/11 01:00:15;;;;;;;;;;;;;;;22.76;34.95;99718.25;5009200;28;19939;-47
2023/12/11 01:02:42;;;;;;;;;;;;;;;22.71;35.09;99719.75;5012751;28;20366;-44
2023/12/11 01:05:07;;;;;;;;;;;;;;;22.69;35.02;99726.47;5031695;28;19921;-47
2023/12/11 01:07:32;;;;;;;;;;;;;;;22.66;34.91;99719.59;5024860;28;19927;-44
2023/12/11 01:09:57;;;;;;;;;;;;;;;22.64;35.00;99707.31;5035653;28;19922;-49
2023/12/11 01:12:23;;;;;;;;;;;;;;;22.62;35.20;99709.44;5043187;28;19920;-43
2023/12/11 01:14:48;;;;;;;;;;;;;;;22.59;35.15;99699.03;5015045;28;19941;-49
2023/12/11 01:17:13;;;;;;;;;;;;;;;22.56;35.38;99694.91;5013723;28;19959;-47
2023/12/11 01:19:39;;;;;;;;;;;;;;;22.55;35.16;99704.06;5040572;28;19922;-44
2023/12/11 01:22:04;;;;;;;;;;;;;;;22.53;35.24;99689.09;5076658;28;19914;-49
2023/12/11 01:24:29;;;;;;;;;;;;;;;22.51;35.22;99685.75;5011003;28;19921;-48
2023/12/11 01:26:54;;;;;;;;;;;;;;;22.48;35.19;99683.53;5035851;28;20019;-48
2023/12/11 01:29:20;;;;;;;;;;;;;;;22.45;35.54;99676.66;5063338;28;19952;-50
2023/12/11 01:31:45;;;;;;;;;;;;;;;22.42;35.45;99680.63;5036948;28;19918;-45
2023/12/11 01:34:10;;;;;;;;;;;;;;;22.40;35.59;99673.78;5059056;28;19918;-43
2023/12/11 01:36:35;;;;;;;;;;;;;;;22.37;35.53;99675.03;5033894;28;19984;-46
2023/12/11 01:39:01;;;;;;;;;;;;;;;22.35;35.34;99668.22;5008623;28;19924;-46
2023/12/11 01:41:26;;;;;;;;;;;;;;;22.32;35.77;99663.22;5033615;28;19959;-45
2023/12/11 01:43:54;;;;;;;;;;;;;;;22.30;35.50;99651.78;5038340;28;19919;-45
2023/12/11 01:46:20;;;;;;;;;;;;;;;22.28;35.90;99646.59;5034703;28;19914;-44
2023/12/11 01:48:45;;;;;;;;;;;;;;;22.27;35.71;99636.00;5063248;28;19918;-48
2023/12/11 01:51:10;;;;;;;;;;;;;;;22.24;35.78;99639.97;5027378;28;19918;-44
2023/12/11 01:53:36;;;;;;;;;;;;;;;22.22;35.97;99642.06;5058544;28;19929;-45
2023/12/11 01:56:01;;;;;;;;;;;;;;;22.21;35.83;99646.63;5016381;28;19920;-44
2023/12/11 01:58:29;;;;;;;;;;;;;;;22.19;35.74;99646.03;5020622;28;19917;-43
2023/12/11 02:00:54;;;;;;;;;;;;;;;22.18;35.71;99640.88;5030986;28;19914;-44
2023/12/11 02:03:19;;;;;;;;;;;;;;;22.17;35.59;99631.91;5012043;28;19919;-44
2023/12/11 02:05:45;;;;;;;;;;;;;;;22.16;35.78;99632.94;5052102;28;20242;-44
2023/12/11 02:08:10;;;;;;;;;;;;;;;22.14;35.84;99629.63;5024460;28;19920;-44
2023/12/11 02:10:35;;;;;;;;;;;;;;;22.12;35.83;99623.59;5010041;28;19917;-47
2023/12/11 02:13:01;;;;;;;;;;;;;;;22.13;35.98;99619.00;5026057;28;19995;-45
2023/12/11 02:15:36;;;;;;;;;;;;;;;22.11;35.74;99621.09;5036109;28;19913;-46
2023/12/11 02:18:01;;;;;;;;;;;;;;;22.09;35.94;99612.34;5021018;28;19922;-46
2023/12/11 02:20:26;;;;;;;;;;;;;;;22.09;35.97;99609.66;5035710;28;19913;-45
2023/12/11 02:22:51;;;;;;;;;;;;;;;22.07;36.05;99607.16;5028338;28;19912;-46
2023/12/11 02:25:17;;;;;;;;;;;;;;;22.06;35.91;99616.34;5070452;28;19966;-45
2023/12/11 02:27:42;;;;;;;;;;;;;;;22.04;36.10;99613.00;5019839;28;19971;-45
2023/12/11 02:30:07;;;;;;;;;;;;;;;22.03;36.26;99614.06;5036309;28;19915;-46
2023/12/11 02:32:33;;;;;;;;;;;;;;;22.03;35.86;99611.38;5082826;28;19917;-47
2023/12/11 02:34:58;;;;;;;;;;;;;;;22.01;35.95;99605.38;5030856;28;19924;-45
2023/12/11 02:37:23;;;;;;;;;;;;;;;22.01;36.07;99607.25;5042457;28;19913;-48
2023/12/11 02:39:48;;;;;;;;;;;;;;;21.99;36.08;99610.16;5010055;28;20025;-45
2023/12/11 02:42:14;;;;;;;;;;;;;;;21.96;36.17;99602.47;5009294;28;19925;-46
2023/12/11 02:44:39;;;;;;;;;;;;;;;21.95;36.39;99604.34;5026777;28;19947;-43
2023/12/11 02:47:04;;;;;;;;;;;;;;;21.94;36.18;99593.75;5019437;28;20356;-45
2023/12/11 02:49:29;;;;;;;;;;;;;;;21.91;36.31;99589.59;5030517;28;20380;-43
2023/12/11 02:51:54;;;;;;;;;;;;;;;21.90;36.31;99596.06;5038057;28;20487;-44
2023/12/11 02:54:20;;;;;;;;;;;;;;;21.88;36.37;99595.47;5023727;28;19925;-43
2023/12/11 02:56:45;;;;;;;;;;;;;;;21.87;36.44;99592.97;5008902;28;19912;-47
2023/12/11 02:59:10;;;;;;;;;;;;;;;21.85;36.44;99582.38;5047685;28;19965;-43
2023/12/11 03:01:39;;;;;;;;;;;;;;;21.84;36.35;99588.00;5032188;28;19914;-45
2023/12/11 03:04:04;;;;;;;;;;;;;;;21.81;36.73;99578.44;5022503;28;19917;-44
2023/12/11 03:06:29;;;;;;;;;;;;;;;21.81;36.43;99583.84;5066282;28;19921;-45
2023/12/11 03:08:54;;;;;;;;;;;;;;;21.80;36.67;99584.91;5023625;28;19914;-44
2023/12/11 03:11:20;;;;;;;;;;;;;;;21.79;36.64;99585.97;5056616;28;19916;-46
2023/12/11 03:13:45;;;;;;;;;;;;;;;21.78;36.42;99568.06;5040123;28;19984;-47
2023/12/11 03:16:15;;;;;;;;;;;;;;;21.76;36.65;99561.22;5037270;28;19963;-44
2023/12/11 03:18:41;;;;;;;;;;;;;;;21.75;36.52;99554.13;5017519;28;19918;-46
2023/12/11 03:21:06;;;;;;;;;;;;;;;21.75;36.75;99551.44;5017104;28;19914;-44
2023/12/11 03:23:31;;;;;;;;;;;;;;;21.74;36.61;99544.38;5029773;28;19994;-45
2023/12/11 03:25:57;;;;;;;;;;;;;;;21.73;36.83;99540.00;5015569;28;20015;-48
2023/12/11 03:28:24;;;;;;;;;;;;;;;21.73;36.68;99548.13;5034221;28;20017;-44
2023/12/11 03:30:49;;;;;;;;;;;;;;;21.70;36.89;99536.69;5027478;28;20060;-48
2023/12/11 03:33:16;;;;;;;;;;;;;;;21.70;36.97;99535.88;5023862;28;19918;-48
2023/12/11 03:35:41;;;;;;;;;;;;;;;21.68;36.64;99532.56;5013949;28;19914;-46
2023/12/11 03:38:06;;;;;;;;;;;;;;;21.66;37.00;99535.50;5019790;28;20013;-43
2023/12/11 03:40:31;;;;;;;;;;;;;;;21.64;36.78;99532.16;5016802;28;19925;-43
2023/12/11 03:42:56;;;;;;;;;;;;;;;21.61;36.80;99532.59;5003923;28;19922;-45
2023/12/11 03:45:22;;;;;;;;;;;;;;;21.59;36.93;99539.28;5042587;28;19913;-43
2023/12/11 03:47:47;;;;;;;;;;;;;;;21.56;37.14;99532.44;5025717;28;19918;-48
2023/12/11 03:50:12;;;;;;;;;;;;;;;21.54;37.08;99531.03;5011497;28;19922;-43
2023/12/11 03:52:38;;;;;;;;;;;;;;;21.53;37.25;99537.44;5018894;28;19922;-43
2023/12/11 03:55:03;;;;;;;;;;;;;;;21.49;37.25;99531.66;5038678;28;19921;-44
2023/12/11 03:57:28;;;;;;;;;;;;;;;21.47;37.29;99525.66;5028947;28;19994;-45
2023/12/11 03:59:53;;;;;;;;;;;;;;;21.44;37.43;99535.00;5021948;28;19918;-44
2023/12/11 04:02:19;;;;;;;;;;;;;;;21.43;37.10;99536.06;5023590;28;19921;-43
2023/12/11 04:04:44;;;;;;;;;;;;;;;21.41;37.27;99521.94;5014176;28;19918;-43
2023/12/11 04:07:09;;;;;;;;;;;;;;;21.40;37.38;99522.97;5008424;28;19914;-47
2023/12/11 04:09:34;;;;;;;;;;;;;;;21.38;37.39;99518.84;5026339;28;19930;-43
2023/12/11 04:12:00;;;;;;;;;;;;;;;21.36;37.24;99526.34;5025237;28;20001;-44
2023/12/11 04:14:25;;;;;;;;;;;;;;;21.34;37.11;99515.75;5040012;28;19925;-45
2023/12/11 04:16:50;;;;;;;;;;;;;;;21.33;37.22;99513.28;5037549;28;19918;-44
2023/12/11 04:19:15;;;;;;;;;;;;;;;21.32;37.54;99506.19;5031394;28;19920;-47
2023/12/11 04:21:40;;;;;;;;;;;;;;;21.28;37.57;99508.50;5013073;28;19913;-46
2023/12/11 04:24:06;;;;;;;;;;;;;;;21.28;37.20;99507.63;5031527;28;19950;-44
2023/12/11 04:26:31;;;;;;;;;;;;;;;21.26;37.66;99496.22;5025605;28;19924;-45
2023/12/11 04:28:56;;;;;;;;;;;;;;;21.23;37.42;99495.59;5027765;28;19925;-45
2023/12/11 04:31:23;;;;;;;;;;;;;;;21.21;37.39;99488.78;5027432;28;20359;-45
2023/12/11 04:33:49;;;;;;;;;;;;;;;21.20;37.43;99490.66;5019663;28;19939;-44
2023/12/11 04:36:14;;;;;;;;;;;;;;;21.20;37.50;99492.53;5004939;28;20118;-44
2023/12/11 04:38:39;;;;;;;;;;;;;;;21.17;37.48;99498.38;5038440;28;19924;-43
2023/12/11 04:41:04;;;;;;;;;;;;;;;21.16;37.48;99499.41;5033474;28;19937;-45
2023/12/11 04:43:29;;;;;;;;;;;;;;;21.15;37.38;99489.63;5004555;28;19929;-43
2023/12/11 04:45:55;;;;;;;;;;;;;;;21.14;37.64;99493.38;5020210;28;19943;-43
2023/12/11 04:48:20;;;;;;;;;;;;;;;21.12;37.66;99504.44;5074895;28;19920;-45
2023/12/11 04:50:45;;;;;;;;;;;;;;;21.11;37.83;99501.91;5070180;28;20363;-43
2023/12/11 04:53:10;;;;;;;;;;;;;;;21.10;37.51;99487.59;5041571;28;19914;-44
2023/12/11 04:55:36;;;;;;;;;;;;;;;21.09;37.69;99488.63;5025505;28;19918;-45
2023/12/11 04:58:01;;;;;;;;;;;;;;;21.09;37.83;99491.34;5019296;28;19939;-44
2023/12/11 05:00:26;;;;;;;;;;;;;;;21.08;37.65;99488.88;5009880;28;19938;-43
2023/12/11 05:02:52;;;;;;;;;;;;;;;21.05;37.72;99473.06;5032219;28;20011;-44
2023/12/11 05:05:17;;;;;;;;;;;;;;;21.05;37.54;99464.97;5057758;28;19912;-43
2023/12/11 05:07:42;;;;;;;;;;;;;;;21.03;37.93;99470.59;5031224;28;19979;-43
2023/12/11 05:10:08;;;;;;;;;;;;;;;21.02;37.67;99471.63;5045249;28;19953;-44
2023/12/11 05:12:33;;;;;;;;;;;;;;;20.55;37.82;99394.63;5028808;28;19925;-43
2023/12/11 05:15:00;;;;;;;;;;;;;;;21.01;37.91;99459.16;5018494;28;19917;-43
2023/12/11 05:17:25;;;;;;;;;;;;;;;21.01;37.88;99464.56;5015972;28;19942;-44
2023/12/11 05:19:50;;;;;;;;;;;;;;;21.00;37.86;99465.63;5021929;28;19922;-45
2023/12/11 05:22:16;;;;;;;;;;;;;;;21.00;37.90;99467.50;5077520;28;19930;-45
2023/12/11 05:24:41;;;;;;;;;;;;;;;21.00;37.95;99464.81;5033784;28;20117;-45
2023/12/11 05:27:08;;;;;;;;;;;;;;;20.99;37.93;99466.69;5032818;28;19914;-44
2023/12/11 05:29:33;;;;;;;;;;;;;;;20.98;37.87;99459.59;5015152;28;20706;-44
2023/12/11 05:31:58;;;;;;;;;;;;;;;20.97;37.93;99461.47;5016926;28;19921;-46
2023/12/11 05:34:24;;;;;;;;;;;;;;;20.96;38.12;99470.63;5069270;28;19960;-51
2023/12/11 05:36:49;;;;;;;;;;;;;;;20.97;38.29;99479.56;5026130;28;20433;-49
2023/12/11 05:39:14;;;;;;;;;;;;;;;20.95;38.46;99465.44;5009862;28;20379;-46
2023/12/11 05:41:39;;;;;;;;;;;;;;;20.95;38.53;99463.56;5025981;28;20164;-45
2023/12/11 05:44:05;;;;;;;;;;;;;;;20.95;38.53;99462.75;5016940;28;19972;-44
2023/12/11 05:46:30;;;;;;;;;;;;;;;20.95;38.34;99451.94;5010022;28;19919;-45
2023/12/11 05:48:55;;;;;;;;;;;;;;;20.95;38.33;99454.66;5030562;28;19912;-45
2023/12/11 05:51:22;;;;;;;;;;;;;;;20.95;38.46;99452.78;5020801;28;19923;-48
2023/12/11 05:53:48;;;;;;;;;;;;;;;20.96;38.71;99454.41;5003643;28;19975;-45
2023/12/11 05:56:13;;;;;;;;;;;;;;;20.95;38.82;99444.66;5069458;28;19922;-47
2023/12/11 05:58:38;;;;;;;;;;;;;;;20.95;38.59;99460.88;5016485;28;19918;-44
2023/12/11 06:01:04;;;;;;;;;;;;;;;20.96;38.82;99454.41;5006025;28;19917;-46
2023/12/11 06:03:29;;;;;;;;;;;;;;;20.95;38.66;99452.78;5011160;28;19917;-44
2023/12/11 06:05:58;;;;;;;;;;;;;;;20.95;38.51;99447.38;5003333;28;19944;-45
2023/12/11 06:08:26;;;;;;;;;;;;;;;20.96;38.73;99446.31;5006949;28;19929;-44
2023/12/11 06:10:51;;;;;;;;;;;;;;;20.95;38.69;99436.56;4999335;28;19921;-44
2023/12/11 06:13:16;;;;;;;;;;;;;;;20.95;38.90;99436.56;5014849;28;19918;-47
2023/12/11 06:15:41;;;;;;;;;;;;;;;20.94;38.93;99434.91;5009458;28;20286;-46
2023/12/11 06:18:07;;;;;;;;;;;;;;;20.94;38.77;99431.34;5020031;28;19918;-46
2023/12/11 06:20:32;;;;;;;;;;;;;;;20.94;38.66;99434.06;5066431;28;19921;-44
2023/12/11 06:22:57;;;;;;;;;;;;;;;20.92;38.63;99428.06;4997518;28;19914;-44
2023/12/11 06:25:22;;;;;;;;;;;;;;;20.92;38.88;99425.34;5000299;28;19918;-43
2023/12/11 06:27:48;;;;;;;;;;;;;;;20.92;39.05;99428.88;4999305;28;19913;-44
2023/12/11 06:30:14;;;;;;;;;;;;;;;20.92;38.74;99430.75;5000865;28;19918;-46
2023/12/11 06:32:39;;;;;;;;;;;;;;;20.92;39.21;99425.34;5007302;28;19914;-43
2023/12/11 06:35:04;;;;;;;;;;;;;;;20.93;39.06;99424.31;5001250;28;19924;-44
2023/12/11 06:37:30;;;;;;;;;;;;;;;20.92;39.17;99418.06;5003644;28;19918;-44
2023/12/11 06:39:55;;;;;;;;;;;;;;;20.92;39.06;99426.19;5001273;28;20289;-46
2023/12/11 06:42:20;;;;;;;;;;;;;;;20.92;39.12;99426.19;4998189;28;20022;-46
2023/12/11 06:44:45;;;;;;;;;;;;;;;20.91;39.16;99427.22;5002484;28;19914;-48
2023/12/11 06:47:12;;;;;;;;;;;;;;;20.90;39.01;99422.88;5011116;28;20028;-44
2023/12/11 06:49:37;;;;;;;;;;;;;;;20.90;39.31;99422.88;5010190;28;21701;-47
2023/12/11 06:52:03;;;;;;;;;;;;;;;20.90;39.22;99420.19;5001172;28;19926;-45
2023/12/11 06:54:28;;;;;;;;;;;;;;;20.89;38.98;99414.97;5000164;28;20427;-48
2023/12/11 06:56:53;;;;;;;;;;;;;;;20.89;39.22;99406.88;5072241;28;19923;-46
2023/12/11 06:59:18;;;;;;;;;;;;;;;20.88;39.31;99408.75;5004774;28;19926;-45
2023/12/11 07:01:43;;;;;;;;;;;;;;;20.88;39.33;99416.84;5005708;28;19917;-48
2023/12/11 07:04:09;;;;;;;;;;;;;;;20.88;39.37;99407.91;5010464;28;19917;-46
2023/12/11 07:06:37;;;;;;;;;;;;;;;20.88;39.18;99413.31;5015567;28;20170;-48
2023/12/11 07:09:02;;;;;;;;;;;;;;;20.87;39.17;99419.78;5008341;28;19932;-46
2023/12/11 07:11:28;;;;;;;;;;;;;;;20.87;39.26;99419.78;5003699;28;19918;-45
2023/12/11 07:13:53;;;;;;;;;;;;;;;20.85;39.35;99409.19;5006116;28;19917;-48
2023/12/11 07:16:18;;;;;;;;;;;;;;;20.85;39.31;99401.06;5013179;28;19914;-48
2023/12/11 07:18:44;;;;;;;;;;;;;;;20.83;39.32;99402.34;5006458;28;20039;-50
2023/12/11 07:21:09;;;;;;;;;;;;;;;20.75;39.58;99389.09;5003558;28;19914;-45
2023/12/11 07:23:35;;;;;;;;;;;;;;;20.82;39.48;99403.41;5020118;28;19945;-45
2023/12/11 07:26:00;;;;;;;;;;;;;;;20.80;39.59;99411.72;5003321;28;19967;-44
2023/12/11 07:28:25;;;;;;;;;;;;;;;20.80;39.49;99408.19;5067481;28;19997;-49
2023/12/11 07:30:50;;;;;;;;;;;;;;;20.80;39.17;99409.00;5066606;28;20269;-45
2023/12/11 07:33:16;;;;;;;;;;;;;;;20.79;39.41;99404.66;5010048;28;19993;-44
2023/12/11 07:35:41;;;;;;;;;;;;;;;20.78;39.62;99416.50;5004095;28;19990;-47
2023/12/11 07:38:06;;;;;;;;;;;;;;;20.78;39.18;99408.41;5019335;28;19963;-45
2023/12/11 07:40:31;;;;;;;;;;;;;;;20.76;39.64;99399.69;5005809;28;19918;-45
2023/12/11 07:42:57;;;;;;;;;;;;;;;20.75;39.59;99413.41;5003543;28;19969;-47
2023/12/11 07:45:22;;;;;;;;;;;;;;;20.75;39.52;99413.41;5040224;28;19977;-45
2023/12/11 07:47:47;;;;;;;;;;;;;;;20.66;39.38;99396.63;5016082;28;19917;-48
2023/12/11 07:50:12;;;;;;;;;;;;;;;20.72;39.49;99425.47;5003327;28;20402;-43
2023/12/11 07:52:38;;;;;;;;;;;;;;;20.70;39.38;99412.19;5018986;28;19968;-47
2023/12/11 07:55:04;;;;;;;;;;;;;;;20.69;39.54;99415.94;5005563;28;20396;-48
2023/12/11 07:57:29;;;;;;;;;;;;;;;20.69;39.66;99434.84;5006094;28;19957;-45
2023/12/11 07:59:54;;;;;;;;;;;;;;;20.69;39.65;99436.72;5034874;28;19929;-48
2023/12/11 08:02:19;;;;;;;;;;;;;;;20.68;39.23;99437.75;5064691;28;19913;-45
2023/12/11 08:04:45;;;;;;;;;;;;;;;20.68;39.39;99426.94;5069347;28;19979;-44
2023/12/11 08:07:11;;;;;;;;;;;;;;;20.68;39.49;99433.16;5026155;28;19923;-46
2023/12/11 08:09:36;;;;;;;;;;;;;;;20.67;39.48;99428.81;5052718;28;20076;-45
2023/12/11 08:12:02;;;;;;;;;;;;;;;20.67;39.35;99445.03;5018158;28;19921;-43
2023/12/11 08:14:28;;;;;;;;;;;;;;;20.67;39.61;99445.03;5050357;28;19914;-47
2023/12/11 08:16:53;;;;;;;;;;;;;;;20.66;39.27;99450.66;5027984;28;19921;-46
2023/12/11 08:19:18;;;;;;;;;;;;;;;20.64;39.36;99461.66;5021695;28;20419;-45
2023/12/11 08:21:43;;;;;;;;;;;;;;;20.63;39.60;99454.59;5020539;28;20265;-47
2023/12/11 08:24:08;;;;;;;;;;;;;;;20.63;39.41;99453.78;5012385;28;19913;-46
2023/12/11 08:26:34;;;;;;;;;;;;;;;20.62;39.58;99469.16;5003727;28;20006;-46
2023/12/11 08:28:59;;;;;;;;;;;;;;;20.61;39.30;99467.50;5023906;28;19918;-46
2023/12/11 08:31:24;;;;;;;;;;;;;;;20.60;39.38;99465.00;5035275;28;19963;-48
2023/12/11 08:33:49;;;;;;;;;;;;;;;20.61;39.38;99463.97;5023267;28;19920;-44
2023/12/11 08:36:15;;;;;;;;;;;;;;;20.58;39.40;99473.31;5018422;28;20474;-45
2023/12/11 08:38:40;;;;;;;;;;;;;;;20.58;39.56;99461.69;5012509;28;19918;-45
2023/12/11 08:41:05;;;;;;;;;;;;;;;20.58;39.46;99470.63;5049266;28;19977;-46
2023/12/11 08:43:30;;;;;;;;;;;;;;;20.57;39.32;99476.25;5006983;28;19917;-43
2023/12/11 08:45:56;;;;;;;;;;;;;;;20.57;39.40;99471.66;5026426;28;20015;-48
2023/12/11 08:48:22;;;;;;;;;;;;;;;20.57;39.64;99485.16;5012305;28;20100;-48
2023/12/11 08:50:52;;;;;;;;;;;;;;;20.57;39.46;99500.53;5013001;28;19953;-46
2023/12/11 08:53:17;;;;;;;;;;;;;;;20.55;39.71;99514.25;5019643;28;19924;-44
2023/12/11 08:55:42;;;;;;;;;;;;;;;20.55;39.40;99505.31;5008512;28;19921;-49
2023/12/11 08:58:08;;;;;;;;;;;;;;;20.54;39.41;99515.28;5011143;28;19922;-48
2023/12/11 09:00:33;;;;;;;;;;;;;;;20.54;39.74;99518.00;5021281;28;20294;-48
2023/12/11 09:02:58;;;;;;;;;;;;;;;20.54;39.68;99528.78;5021831;28;20273;-45
2023/12/11 09:05:23;;;;;;;;;;;;;;;20.55;39.59;99530.44;5009702;28;19957;-45
2023/12/11 09:07:49;;;;;;;;;;;;;;;20.55;39.46;99543.94;5014155;28;19992;-48
2023/12/11 09:10:14;;;;;;;;;;;;;;;20.54;39.60;99554.97;5019803;28;19912;-47
2023/12/11 09:12:39;;;;;;;;;;;;;;;20.57;39.50;99570.75;5000203;28;19922;-48
2023/12/11 09:15:05;;;;;;;;;;;;;;;20.58;39.62;99577.81;5028755;28;19917;-47
2023/12/11 09:17:30;;;;;;;;;;;;;;;20.60;39.87;99579.25;5013257;28;19971;-47
2023/12/11 09:19:55;;;;;;;;;;;;;;;20.61;39.81;99580.09;5020607;28;19961;-44
2023/12/11 09:22:20;;;;;;;;;;;;;;;20.63;39.62;99597.72;5007372;28;19928;-46
2023/12/11 09:24:46;;;;;;;;;;;;;;;20.66;39.70;99610.81;5016424;28;19918;-48
2023/12/11 09:27:11;;;;;;;;;;;;;;;20.68;39.86;99616.81;5023880;28;19917;-46
2023/12/11 09:29:37;;;;;;;;;;;;;;;20.71;39.71;99626.38;5001884;28;19981;-47
2023/12/11 09:32:02;;;;;;;;;;;;;;;20.71;39.85;99638.00;5011591;28;19921;-47
2023/12/11 09:34:27;;;;;;;;;;;;;;;20.69;40.00;99645.50;5023718;28;19918;-46
2023/12/11 09:36:53;;;;;;;;;;;;;;;20.71;39.50;99661.50;5006373;28;19921;-46
2023/12/11 09:39:18;;;;;;;;;;;;;;;20.72;39.68;99663.97;5027040;28;19923;-45
2023/12/11 09:41:43;;;;;;;;;;;;;;;20.74;39.80;99677.28;5020425;28;19922;-45
2023/12/11 09:44:08;;;;;;;;;;;;;;;20.75;39.65;99686.22;5006816;28;19918;-46
2023/12/11 09:46:38;;;;;;;;;;;;;;;20.76;39.68;99683.28;5010845;28;19913;-44
2023/12/11 09:49:04;;;;;;;;;;;;;;;20.79;39.66;99693.69;5016926;28;19922;-46
2023/12/11 09:51:29;;;;;;;;;;;;;;;20.81;39.45;99705.09;5014708;28;19994;-48
2023/12/11 09:53:54;;;;;;;;;;;;;;;20.84;39.75;99715.50;5023730;28;19933;-43
2023/12/11 09:56:19;;;;;;;;;;;;;;;20.87;39.70;99719.66;5059485;28;19914;-45
2023/12/11 09:58:45;;;;;;;;;;;;;;;20.89;39.60;99723.78;5064366;28;19928;-43
2023/12/11 10:01:13;;;;;;;;;;;;;;;20.93;39.34;99729.59;5011855;28;19917;-45
2023/12/11 10:03:38;;;;;;;;;;;;;;;20.96;39.46;99753.53;5023563;28;19926;-47
2023/12/11 10:06:04;;;;;;;;;;;;;;;20.99;39.44;99758.50;5013706;28;20312;-46
2023/12/11 10:08:29;;;;;;;;;;;;;;;21.02;39.44;99749.13;5026357;28;19919;-43
2023/12/11 10:11:14;;;;;;;;;;;;;;;21.04;39.30;99756.00;5028512;28;20428;-44
2023/12/11 10:13:40;;;;;;;;;;;;;;;21.08;39.05;99762.66;5062060;28;19918;-45
2023/12/11 10:16:06;;;;;;;;;;;;;;;21.11;39.01;99785.69;5003588;28;19918;-44
2023/12/11 10:18:32;;;;;;;;;;;;;;;21.13;39.32;99789.88;5068629;28;19918;-47
2023/12/11 10:20:58;;;;;;;;;;;;;;;21.17;39.21;99790.28;5031906;28;20383;-44
2023/12/11 10:23:23;;;;;;;;;;;;;;;21.20;39.11;99801.50;5007044;28;19918;-49
2023/12/11 10:25:52;;;;;;;;;;;;;;;21.22;39.03;99810.22;5021052;28;19918;-47
2023/12/11 10:28:18;;;;;;;;;;;;;;;21.26;38.75;99809.81;5022003;28;20012;-46
2023/12/11 10:30:57;;;;;;;;;;;;;;;21.30;38.74;99821.88;5010831;28;19918;-48
2023/12/11 10:33:23;;;;;;;;;;;;;;;21.33;38.80;99835.00;5016717;28;19955;-47
2023/12/11 10:35:48;;;;;;;;;;;;;;;21.35;38.60;99828.31;5063668;28;20265;-47
2023/12/11 10:38:23;;;;;;;;;;;;;;;21.37;38.75;99839.78;4997976;28;19930;-46
2023/12/11 10:40:49;;;;;;;;;;;;;;;21.40;38.65;99852.84;5062837;28;19979;-43
2023/12/11 10:43:14;;;;;;;;;;;;;;;21.44;38.50;99847.88;5017402;28;20554;-44
2023/12/11 10:45:40;;;;;;;;;;;;;;;21.45;38.65;99855.78;5063996;28;19937;-46
2023/12/11 10:48:05;;;;;;;;;;;;;;;21.48;38.52;99861.78;5065075;28;19921;-46
2023/12/11 10:50:31;;;;;;;;;;;;;;;21.50;38.57;99870.56;5074478;28;19922;-46
2023/12/11 10:52:58;;;;;;;;;;;;;;;21.52;38.41;99877.38;5037927;28;19963;-45
2023/12/11 10:55:24;;;;;;;;;;;;;;;21.53;38.13;99879.03;5013010;28;20149;-47
2023/12/11 10:57:49;;;;;;;;;;;;;;;21.55;38.49;99882.38;5018085;28;19918;-46
2023/12/11 11:00:14;;;;;;;;;;;;;;;21.57;38.01;99887.56;5058518;28;20059;-45
2023/12/11 11:02:40;;;;;;;;;;;;;;;21.59;38.17;99889.03;5011260;28;20232;-45
2023/12/11 11:05:05;;;;;;;;;;;;;;;21.60;37.90;99893.41;5070603;28;19983;-45
2023/12/11 11:07:33;;;;;;;;;;;;;;;21.63;38.27;99898.41;5020231;28;19917;-46
2023/12/11 11:09:58;;;;;;;;;;;;;;;21.68;38.21;99909.41;5070004;28;20383;-43
2023/12/11 11:12:34;;;;;;;;;;;;;;;21.71;38.00;99909.00;5024984;28;19926;-45
2023/12/11 11:14:59;;;;;;;;;;;;;;;21.75;38.35;99913.97;5067806;28;19925;-48
2023/12/11 11:17:24;;;;;;;;;;;;;;;21.77;38.24;99917.31;5069187;28;19914;-47
2023/12/11 11:20:15;;;;;;;;;;;;;;;21.80;38.38;99915.00;5028610;28;19953;-47
2023/12/11 11:22:41;;;;;;;;;;;;;;;21.84;38.31;99915.41;5023532;28;20336;-46
2023/12/11 11:25:26;;;;;;;;;;;;;;;21.88;38.12;99909.38;5009881;28;19918;-45
2023/12/11 11:27:51;;;;;;;;;;;;;;;21.93;38.08;99916.84;5004265;28;19914;-46
2023/12/11 11:30:35;;;;;;;;;;;;;;;21.99;38.07;99924.09;4997256;28;19918;-44
2023/12/11 11:33:01;;;;;;;;;;;;;;;22.05;37.87;99934.09;5011084;28;19922;-44
2023/12/11 11:35:45;;;;;;;;;;;;;;;22.09;37.78;99942.59;5012296;28;19992;-44
2023/12/11 11:38:10;;;;;;;;;;;;;;;22.11;37.57;99952.19;4997121;28;19922;-44
2023/12/11 11:40:35;;;;;;;;;;;;;;;22.13;37.62;99963.69;5068914;28;20353;-44
2023/12/11 11:43:00;;;;;;;;;;;;;;;22.16;37.26;99967.81;5001962;28;19981;-44
2023/12/11 11:45:26;;;;;;;;;;;;;;;22.18;37.40;99988.22;5009587;28;20004;-45
2023/12/11 11:47:51;;;;;;;;;;;;;;;22.17;37.47;99981.16;5067370;28;19918;-45
2023/12/11 11:50:18;;;;;;;;;;;;;;;22.19;37.22;99980.94;5017503;28;19921;-43
2023/12/11 11:52:43;;;;;;;;;;;;;;;22.22;37.44;99977.81;5004783;28;19921;-44
2023/12/11 11:55:08;;;;;;;;;;;;;;;22.24;37.38;99977.59;5064609;28;19926;-44
2023/12/11 11:57:33;;;;;;;;;;;;;;;22.27;37.03;99983.41;4994649;28;19918;-45
2023/12/11 11:59:59;;;;;;;;;;;;;;;22.30;37.07;99988.41;5001206;28;19918;-44
2023/12/11 12:02:25;;;;;;;;;;;;;;;22.37;36.92;99999.22;5011577;28;19914;-45
2023/12/11 12:04:50;;;;;;;;;;;;;;;22.42;37.06;100004.81;5003200;28;20017;-44
2023/12/11 12:07:15;;;;;;;;;;;;;;;22.45;36.59;99998.97;5001665;28;20020;-46
2023/12/11 12:09:40;;;;;;;;;;;;;;;22.48;36.73;100017.50;5005653;28;19949;-44
2023/12/11 12:12:06;;;;;;;;;;;;;;;22.52;36.83;100020.63;5066917;28;19918;-44
2023/12/11 12:14:31;;;;;;;;;;;;;;;22.53;36.85;100000.63;4993654;28;19914;-50
2023/12/11 12:16:57;;;;;;;;;;;;;;;22.58;37.04;100022.47;5062870;28;19918;-54
2023/12/11 12:19:32;;;;;;;;;;;;;;;22.65;36.48;100024.13;4996835;28;19985;-50
2023/12/11 12:21:58;;;;;;;;;;;;;;;22.73;36.74;100033.88;5004910;28;20291;-52
2023/12/11 12:24:24;;;;;;;;;;;;;;;22.79;36.26;100038.44;5001622;28;19929;-51
2023/12/11 12:26:51;;;;;;;;;;;;;;;22.84;36.03;100051.34;5004553;28;19960;-49
2023/12/11 12:29:16;;;;;;;;;;;;;;;22.87;36.28;100046.31;5005829;28;19949;-51
2023/12/11 12:31:42;;;;;;;;;;;;;;;22.89;36.04;100046.09;5005916;28;19914;-51
2023/12/11 12:34:07;;;;;;;;;;;;;;;22.91;35.89;100053.00;5061885;28;20411;-53
2023/12/11 12:36:32;;;;;;;;;;;;;;;22.92;35.87;100053.84;5001874;28;19914;-50
2023/12/11 12:38:57;;;;;;;;;;;;;;;22.91;35.94;100061.13;5020001;28;19920;-49